sensor_id;sensor_type;location;lat;lon;timestamp;P1;durP1;ratioP1;P2;durP2;ratioP2
8532;SDS011;4304;53.876;10.662;2023-06-22T00:01:27;3.42;;;1.75;;
8532;SDS011;4304;53.876;10.662;2023-06-22T00:03:52;2.70;;;1.45;;
8532;SDS011;4304;53.876;10.662;2023-06-22T00:06:18;3.45;;;1.75;;
8532;SDS011;4304;53.876;10.662;2023-06-22T00:08:43;2.90;;;1.85;;
8532;SDS011;4304;53.876;10.662;2023-06-22T00:11:08;2.58;;;1.50;;
8532;SDS011;4304;53.876;10.662;2023-06-22T00:13:34;3.42;;;1.65;;
8532;SDS011;4304;53.876;10.662;2023-06-22T00:15:59;3.92;;;2.28;;
8532;SDS011;4304;53.876;10.662;2023-06-22T00:18:25;5.63;;;2.10;;
8532;SDS011;4304;53.876;10.662;2023-06-22T00:20:52;2.90;;;1.45;;
8532;SDS011;4304;53.876;10.662;2023-06-22T00:25:49;3.47;;;1.57;;
8532;SDS011;4304;53.876;10.662;2023-06-22T00:28:15;2.60;;;1.38;;
8532;SDS011;4304;53.876;10.662;2023-06-22T00:30:40;3.65;;;1.85;;
8532;SDS011;4304;53.876;10.662;2023-06-22T00:33:05;3.47;;;2.00;;
8532;SDS011;4304;53.876;10.662;2023-06-22T00:35:32;5.32;;;2.45;;
8532;SDS011;4304;53.876;10.662;2023-06-22T00:37:59;2.97;;;1.77;;
8532;SDS011;4304;53.876;10.662;2023-06-22T00:40:29;3.17;;;1.83;;
8532;SDS011;4304;53.876;10.662;2023-06-22T00:42:55;4.93;;;2.95;;
8532;SDS011;4304;53.876;10.662;2023-06-22T00:45:24;4.00;;;2.38;;
8532;SDS011;4304;53.876;10.662;2023-06-22T00:47:52;3.80;;;2.10;;
8532;SDS011;4304;53.876;10.662;2023-06-22T00:50:20;4.72;;;2.65;;
8532;SDS011;4304;53.876;10.662;2023-06-22T00:52:48;3.13;;;2.10;;
8532;SDS011;4304;53.876;10.662;2023-06-22T00:55:16;4.10;;;1.90;;
8532;SDS011;4304;53.876;10.662;2023-06-22T00:57:43;3.17;;;1.48;;
8532;SDS011;4304;53.876;10.662;2023-06-22T01:00:11;2.40;;;1.83;;
8532;SDS011;4304;53.876;10.662;2023-06-22T01:02:44;4.03;;;1.98;;
8532;SDS011;4304;53.876;10.662;2023-06-22T01:05:17;6.03;;;1.83;;
8532;SDS011;4304;53.876;10.662;2023-06-22T01:10:38;4.20;;;1.75;;
8532;SDS011;4304;53.876;10.662;2023-06-22T01:13:11;3.85;;;1.95;;
8532;SDS011;4304;53.876;10.662;2023-06-22T01:15:49;3.05;;;1.52;;
8532;SDS011;4304;53.876;10.662;2023-06-22T01:18:21;3.40;;;1.77;;
8532;SDS011;4304;53.876;10.662;2023-06-22T01:20:50;3.00;;;1.80;;
8532;SDS011;4304;53.876;10.662;2023-06-22T01:23:26;3.65;;;1.75;;
8532;SDS011;4304;53.876;10.662;2023-06-22T01:28:48;3.45;;;1.85;;
8532;SDS011;4304;53.876;10.662;2023-06-22T01:31:19;3.30;;;2.08;;
8532;SDS011;4304;53.876;10.662;2023-06-22T01:33:49;2.45;;;1.55;;
8532;SDS011;4304;53.876;10.662;2023-06-22T01:36:20;3.13;;;1.83;;
8532;SDS011;4304;53.876;10.662;2023-06-22T01:38:46;4.03;;;2.08;;
8532;SDS011;4304;53.876;10.662;2023-06-22T01:41:13;2.78;;;1.80;;
8532;SDS011;4304;53.876;10.662;2023-06-22T01:43:38;9.30;;;2.05;;
8532;SDS011;4304;53.876;10.662;2023-06-22T01:46:04;3.88;;;1.88;;
8532;SDS011;4304;53.876;10.662;2023-06-22T01:48:29;3.53;;;2.03;;
8532;SDS011;4304;53.876;10.662;2023-06-22T01:50:56;3.53;;;1.98;;
8532;SDS011;4304;53.876;10.662;2023-06-22T01:53:22;2.95;;;1.88;;
8532;SDS011;4304;53.876;10.662;2023-06-22T01:55:48;4.22;;;2.13;;
8532;SDS011;4304;53.876;10.662;2023-06-22T01:58:14;4.43;;;2.63;;
8532;SDS011;4304;53.876;10.662;2023-06-22T02:00:40;2.80;;;1.92;;
8532;SDS011;4304;53.876;10.662;2023-06-22T02:03:13;3.78;;;2.20;;
8532;SDS011;4304;53.876;10.662;2023-06-22T02:05:47;3.40;;;2.38;;
8532;SDS011;4304;53.876;10.662;2023-06-22T02:08:19;3.67;;;1.70;;
8532;SDS011;4304;53.876;10.662;2023-06-22T02:10:47;3.55;;;1.60;;
8532;SDS011;4304;53.876;10.662;2023-06-22T02:13:14;2.90;;;1.80;;
8532;SDS011;4304;53.876;10.662;2023-06-22T02:15:40;2.67;;;1.67;;
8532;SDS011;4304;53.876;10.662;2023-06-22T02:18:07;4.05;;;2.00;;
8532;SDS011;4304;53.876;10.662;2023-06-22T02:20:32;4.97;;;2.75;;
8532;SDS011;4304;53.876;10.662;2023-06-22T02:22:57;3.47;;;1.80;;
8532;SDS011;4304;53.876;10.662;2023-06-22T02:25:23;3.90;;;2.00;;
8532;SDS011;4304;53.876;10.662;2023-06-22T02:27:48;5.75;;;2.47;;
8532;SDS011;4304;53.876;10.662;2023-06-22T02:30:13;2.83;;;1.65;;
8532;SDS011;4304;53.876;10.662;2023-06-22T02:32:40;5.70;;;2.08;;
8532;SDS011;4304;53.876;10.662;2023-06-22T02:35:07;2.30;;;1.35;;
8532;SDS011;4304;53.876;10.662;2023-06-22T02:37:34;2.60;;;1.52;;
8532;SDS011;4304;53.876;10.662;2023-06-22T02:40:04;3.15;;;2.17;;
8532;SDS011;4304;53.876;10.662;2023-06-22T02:42:31;4.25;;;2.03;;
8532;SDS011;4304;53.876;10.662;2023-06-22T02:44:57;3.92;;;2.10;;
8532;SDS011;4304;53.876;10.662;2023-06-22T02:47:22;3.10;;;1.80;;
8532;SDS011;4304;53.876;10.662;2023-06-22T02:49:48;3.47;;;1.83;;
8532;SDS011;4304;53.876;10.662;2023-06-22T02:52:13;3.55;;;1.77;;
8532;SDS011;4304;53.876;10.662;2023-06-22T02:54:38;3.38;;;2.55;;
8532;SDS011;4304;53.876;10.662;2023-06-22T02:57:04;3.20;;;2.08;;
8532;SDS011;4304;53.876;10.662;2023-06-22T02:59:30;4.97;;;2.63;;
8532;SDS011;4304;53.876;10.662;2023-06-22T03:01:55;4.53;;;2.40;;
8532;SDS011;4304;53.876;10.662;2023-06-22T03:04:20;2.88;;;1.65;;
8532;SDS011;4304;53.876;10.662;2023-06-22T03:06:46;4.03;;;2.17;;
8532;SDS011;4304;53.876;10.662;2023-06-22T03:09:16;4.07;;;2.17;;
8532;SDS011;4304;53.876;10.662;2023-06-22T03:11:41;3.80;;;2.03;;
8532;SDS011;4304;53.876;10.662;2023-06-22T03:14:07;4.03;;;2.15;;
8532;SDS011;4304;53.876;10.662;2023-06-22T03:16:32;4.75;;;2.00;;
8532;SDS011;4304;53.876;10.662;2023-06-22T03:18:58;4.85;;;2.65;;
8532;SDS011;4304;53.876;10.662;2023-06-22T03:21:25;4.00;;;1.40;;
8532;SDS011;4304;53.876;10.662;2023-06-22T03:23:52;7.30;;;2.22;;
8532;SDS011;4304;53.876;10.662;2023-06-22T03:26:18;4.07;;;2.33;;
8532;SDS011;4304;53.876;10.662;2023-06-22T03:28:43;2.75;;;1.52;;
8532;SDS011;4304;53.876;10.662;2023-06-22T03:31:08;4.28;;;2.28;;
8532;SDS011;4304;53.876;10.662;2023-06-22T03:33:34;4.60;;;2.50;;
8532;SDS011;4304;53.876;10.662;2023-06-22T03:35:59;3.58;;;2.47;;
8532;SDS011;4304;53.876;10.662;2023-06-22T03:38:25;3.05;;;1.90;;
8532;SDS011;4304;53.876;10.662;2023-06-22T03:40:50;5.90;;;2.75;;
8532;SDS011;4304;53.876;10.662;2023-06-22T03:43:15;5.15;;;2.65;;
8532;SDS011;4304;53.876;10.662;2023-06-22T03:45:41;4.65;;;2.78;;
8532;SDS011;4304;53.876;10.662;2023-06-22T03:48:06;3.75;;;2.03;;
8532;SDS011;4304;53.876;10.662;2023-06-22T03:50:31;4.50;;;2.97;;
8532;SDS011;4304;53.876;10.662;2023-06-22T03:52:57;5.88;;;2.33;;
8532;SDS011;4304;53.876;10.662;2023-06-22T03:55:22;4.07;;;2.70;;
8532;SDS011;4304;53.876;10.662;2023-06-22T03:57:47;8.70;;;3.17;;
8532;SDS011;4304;53.876;10.662;2023-06-22T04:00:13;8.90;;;2.88;;
8532;SDS011;4304;53.876;10.662;2023-06-22T04:02:40;3.70;;;2.58;;
8532;SDS011;4304;53.876;10.662;2023-06-22T04:05:06;4.57;;;2.40;;
8532;SDS011;4304;53.876;10.662;2023-06-22T04:07:31;6.78;;;3.63;;
8532;SDS011;4304;53.876;10.662;2023-06-22T04:09:57;4.72;;;2.22;;
8532;SDS011;4304;53.876;10.662;2023-06-22T04:12:22;7.25;;;3.25;;
8532;SDS011;4304;53.876;10.662;2023-06-22T04:14:47;5.25;;;2.45;;
8532;SDS011;4304;53.876;10.662;2023-06-22T04:17:13;4.20;;;2.57;;
8532;SDS011;4304;53.876;10.662;2023-06-22T04:19:39;8.50;;;3.25;;
8532;SDS011;4304;53.876;10.662;2023-06-22T04:22:05;3.97;;;2.42;;
8532;SDS011;4304;53.876;10.662;2023-06-22T04:24:35;4.47;;;2.22;;
8532;SDS011;4304;53.876;10.662;2023-06-22T04:27:00;6.15;;;3.13;;
8532;SDS011;4304;53.876;10.662;2023-06-22T04:29:27;4.03;;;2.53;;
8532;SDS011;4304;53.876;10.662;2023-06-22T04:31:55;4.72;;;2.70;;
8532;SDS011;4304;53.876;10.662;2023-06-22T04:34:23;3.78;;;2.03;;
8532;SDS011;4304;53.876;10.662;2023-06-22T04:36:52;5.43;;;2.85;;
8532;SDS011;4304;53.876;10.662;2023-06-22T04:39:18;6.70;;;2.42;;
8532;SDS011;4304;53.876;10.662;2023-06-22T04:41:44;3.70;;;2.20;;
8532;SDS011;4304;53.876;10.662;2023-06-22T04:44:12;4.35;;;2.25;;
8532;SDS011;4304;53.876;10.662;2023-06-22T04:46:39;5.25;;;2.90;;
8532;SDS011;4304;53.876;10.662;2023-06-22T04:49:06;5.22;;;2.67;;
8532;SDS011;4304;53.876;10.662;2023-06-22T04:51:41;4.88;;;2.92;;
8532;SDS011;4304;53.876;10.662;2023-06-22T04:54:07;4.63;;;2.50;;
8532;SDS011;4304;53.876;10.662;2023-06-22T04:56:33;4.93;;;1.95;;
8532;SDS011;4304;53.876;10.662;2023-06-22T04:58:59;5.78;;;2.60;;
8532;SDS011;4304;53.876;10.662;2023-06-22T05:01:24;7.13;;;2.30;;
8532;SDS011;4304;53.876;10.662;2023-06-22T05:03:50;6.47;;;2.20;;
8532;SDS011;4304;53.876;10.662;2023-06-22T05:06:20;2.47;;;1.67;;
8532;SDS011;4304;53.876;10.662;2023-06-22T05:08:46;4.75;;;2.00;;
8532;SDS011;4304;53.876;10.662;2023-06-22T05:11:12;4.15;;;2.05;;
8532;SDS011;4304;53.876;10.662;2023-06-22T05:13:37;5.03;;;2.13;;
8532;SDS011;4304;53.876;10.662;2023-06-22T05:16:02;5.05;;;2.38;;
8532;SDS011;4304;53.876;10.662;2023-06-22T05:18:28;5.80;;;2.58;;
8532;SDS011;4304;53.876;10.662;2023-06-22T05:20:54;3.83;;;2.30;;
8532;SDS011;4304;53.876;10.662;2023-06-22T05:23:20;4.32;;;2.78;;
8532;SDS011;4304;53.876;10.662;2023-06-22T05:25:45;4.70;;;2.15;;
8532;SDS011;4304;53.876;10.662;2023-06-22T05:28:11;3.63;;;1.73;;
8532;SDS011;4304;53.876;10.662;2023-06-22T05:30:36;4.70;;;2.20;;
8532;SDS011;4304;53.876;10.662;2023-06-22T05:33:02;2.88;;;1.73;;
8532;SDS011;4304;53.876;10.662;2023-06-22T05:35:27;3.13;;;1.50;;
8532;SDS011;4304;53.876;10.662;2023-06-22T05:37:53;5.05;;;2.00;;
8532;SDS011;4304;53.876;10.662;2023-06-22T05:40:18;6.18;;;1.90;;
8532;SDS011;4304;53.876;10.662;2023-06-22T05:42:44;3.25;;;1.92;;
8532;SDS011;4304;53.876;10.662;2023-06-22T05:45:09;5.43;;;2.05;;
8532;SDS011;4304;53.876;10.662;2023-06-22T05:47:34;4.35;;;1.75;;
8532;SDS011;4304;53.876;10.662;2023-06-22T05:50:00;8.10;;;1.55;;
8532;SDS011;4304;53.876;10.662;2023-06-22T05:52:25;3.60;;;1.65;;
8532;SDS011;4304;53.876;10.662;2023-06-22T05:54:50;4.00;;;1.43;;
8532;SDS011;4304;53.876;10.662;2023-06-22T05:57:16;3.55;;;1.63;;
8532;SDS011;4304;53.876;10.662;2023-06-22T05:59:41;4.55;;;2.35;;
8532;SDS011;4304;53.876;10.662;2023-06-22T06:02:06;5.70;;;1.80;;
8532;SDS011;4304;53.876;10.662;2023-06-22T06:04:32;3.70;;;1.60;;
8532;SDS011;4304;53.876;10.662;2023-06-22T06:06:57;3.30;;;1.38;;
8532;SDS011;4304;53.876;10.662;2023-06-22T06:09:22;4.15;;;1.70;;
8532;SDS011;4304;53.876;10.662;2023-06-22T06:11:48;2.30;;;1.58;;
8532;SDS011;4304;53.876;10.662;2023-06-22T06:14:13;4.33;;;1.93;;
8532;SDS011;4304;53.876;10.662;2023-06-22T06:16:38;4.65;;;1.77;;
8532;SDS011;4304;53.876;10.662;2023-06-22T06:19:03;2.50;;;1.17;;
8532;SDS011;4304;53.876;10.662;2023-06-22T06:21:29;3.83;;;1.77;;
8532;SDS011;4304;53.876;10.662;2023-06-22T06:23:54;2.13;;;1.13;;
8532;SDS011;4304;53.876;10.662;2023-06-22T06:26:20;3.30;;;1.40;;
8532;SDS011;4304;53.876;10.662;2023-06-22T06:28:53;2.40;;;1.25;;
8532;SDS011;4304;53.876;10.662;2023-06-22T06:31:19;2.30;;;1.38;;
8532;SDS011;4304;53.876;10.662;2023-06-22T06:33:45;3.83;;;1.50;;
8532;SDS011;4304;53.876;10.662;2023-06-22T06:36:11;3.63;;;1.63;;
8532;SDS011;4304;53.876;10.662;2023-06-22T06:38:36;2.57;;;1.47;;
8532;SDS011;4304;53.876;10.662;2023-06-22T06:41:01;3.37;;;1.97;;
8532;SDS011;4304;53.876;10.662;2023-06-22T06:43:27;2.42;;;1.27;;
8532;SDS011;4304;53.876;10.662;2023-06-22T06:45:52;3.25;;;1.30;;
8532;SDS011;4304;53.876;10.662;2023-06-22T06:48:18;2.25;;;1.40;;
8532;SDS011;4304;53.876;10.662;2023-06-22T06:50:43;1.90;;;1.02;;
8532;SDS011;4304;53.876;10.662;2023-06-22T06:53:09;3.25;;;1.70;;
8532;SDS011;4304;53.876;10.662;2023-06-22T06:55:34;2.25;;;1.08;;
8532;SDS011;4304;53.876;10.662;2023-06-22T06:58:00;2.47;;;1.35;;
8532;SDS011;4304;53.876;10.662;2023-06-22T07:00:26;3.58;;;1.20;;
8532;SDS011;4304;53.876;10.662;2023-06-22T07:02:52;2.08;;;1.10;;
8532;SDS011;4304;53.876;10.662;2023-06-22T07:05:18;3.13;;;1.27;;
8532;SDS011;4304;53.876;10.662;2023-06-22T07:07:43;2.83;;;1.25;;
8532;SDS011;4304;53.876;10.662;2023-06-22T07:10:09;2.78;;;0.98;;
8532;SDS011;4304;53.876;10.662;2023-06-22T07:12:35;2.90;;;1.15;;
8532;SDS011;4304;53.876;10.662;2023-06-22T07:15:01;2.28;;;1.02;;
8532;SDS011;4304;53.876;10.662;2023-06-22T07:17:33;2.78;;;1.33;;
8532;SDS011;4304;53.876;10.662;2023-06-22T07:19:58;3.08;;;1.20;;
8532;SDS011;4304;53.876;10.662;2023-06-22T07:22:23;4.00;;;2.08;;
8532;SDS011;4304;53.876;10.662;2023-06-22T07:24:49;3.60;;;1.45;;
8532;SDS011;4304;53.876;10.662;2023-06-22T07:27:14;5.10;;;1.63;;
8532;SDS011;4304;53.876;10.662;2023-06-22T07:29:43;2.60;;;1.17;;
8532;SDS011;4304;53.876;10.662;2023-06-22T07:32:08;2.65;;;1.27;;
8532;SDS011;4304;53.876;10.662;2023-06-22T07:34:34;2.90;;;1.58;;
8532;SDS011;4304;53.876;10.662;2023-06-22T07:36:59;4.65;;;1.98;;
8532;SDS011;4304;53.876;10.662;2023-06-22T07:39:24;3.10;;;1.50;;
8532;SDS011;4304;53.876;10.662;2023-06-22T07:41:51;3.55;;;1.75;;
8532;SDS011;4304;53.876;10.662;2023-06-22T07:44:17;2.10;;;1.30;;
8532;SDS011;4304;53.876;10.662;2023-06-22T07:46:43;3.38;;;1.20;;
8532;SDS011;4304;53.876;10.662;2023-06-22T07:49:08;3.15;;;1.40;;
8532;SDS011;4304;53.876;10.662;2023-06-22T07:51:34;4.07;;;1.25;;
8532;SDS011;4304;53.876;10.662;2023-06-22T07:53:59;2.53;;;1.27;;
8532;SDS011;4304;53.876;10.662;2023-06-22T07:56:25;3.83;;;1.63;;
8532;SDS011;4304;53.876;10.662;2023-06-22T07:58:50;4.93;;;1.35;;
8532;SDS011;4304;53.876;10.662;2023-06-22T08:01:16;3.30;;;1.52;;
8532;SDS011;4304;53.876;10.662;2023-06-22T08:03:42;2.45;;;0.90;;
8532;SDS011;4304;53.876;10.662;2023-06-22T08:06:07;4.03;;;1.33;;
8532;SDS011;4304;53.876;10.662;2023-06-22T08:08:34;2.30;;;1.05;;
8532;SDS011;4304;53.876;10.662;2023-06-22T08:11:00;2.80;;;1.30;;
8532;SDS011;4304;53.876;10.662;2023-06-22T08:13:25;2.65;;;1.25;;
8532;SDS011;4304;53.876;10.662;2023-06-22T08:15:51;4.10;;;1.10;;
8532;SDS011;4304;53.876;10.662;2023-06-22T08:18:16;2.40;;;1.20;;
8532;SDS011;4304;53.876;10.662;2023-06-22T08:20:42;4.07;;;1.63;;
8532;SDS011;4304;53.876;10.662;2023-06-22T08:23:07;2.92;;;1.38;;
8532;SDS011;4304;53.876;10.662;2023-06-22T08:25:33;6.10;;;1.83;;
8532;SDS011;4304;53.876;10.662;2023-06-22T08:27:59;2.67;;;1.23;;
8532;SDS011;4304;53.876;10.662;2023-06-22T08:30:25;3.00;;;1.20;;
8532;SDS011;4304;53.876;10.662;2023-06-22T08:32:50;3.10;;;1.40;;
8532;SDS011;4304;53.876;10.662;2023-06-22T08:35:20;5.95;;;1.83;;
8532;SDS011;4304;53.876;10.662;2023-06-22T08:38:58;5.22;;;1.63;;
8532;SDS011;4304;53.876;10.662;2023-06-22T09:09:01;2.90;;;1.10;;
8532;SDS011;4304;53.876;10.662;2023-06-22T09:32:14;4.68;;;1.58;;
8532;SDS011;4304;53.876;10.662;2023-06-22T09:39:19;3.17;;;1.70;;
8532;SDS011;4304;53.876;10.662;2023-06-22T09:42:41;2.40;;;1.17;;
8532;SDS011;4304;53.876;10.662;2023-06-22T09:49:24;3.45;;;1.65;;
8532;SDS011;4304;53.876;10.662;2023-06-22T09:52:39;2.30;;;1.02;;
8532;SDS011;4304;53.876;10.662;2023-06-22T09:56:09;2.03;;;1.10;;
8532;SDS011;4304;53.876;10.662;2023-06-22T09:59:05;3.38;;;1.58;;
8532;SDS011;4304;53.876;10.662;2023-06-22T10:08:42;3.15;;;1.27;;
8532;SDS011;4304;53.876;10.662;2023-06-22T10:32:23;3.20;;;1.33;;
8532;SDS011;4304;53.876;10.662;2023-06-22T10:35:42;2.60;;;1.25;;
8532;SDS011;4304;53.876;10.662;2023-06-22T10:42:34;2.75;;;1.17;;
8532;SDS011;4304;53.876;10.662;2023-06-22T10:45:00;2.83;;;1.70;;
8532;SDS011;4304;53.876;10.662;2023-06-22T10:47:25;2.58;;;1.42;;
8532;SDS011;4304;53.876;10.662;2023-06-22T10:49:50;3.85;;;1.70;;
8532;SDS011;4304;53.876;10.662;2023-06-22T10:52:16;5.65;;;2.10;;
8532;SDS011;4304;53.876;10.662;2023-06-22T10:54:41;3.83;;;1.33;;
8532;SDS011;4304;53.876;10.662;2023-06-22T10:57:06;2.65;;;1.42;;
8532;SDS011;4304;53.876;10.662;2023-06-22T10:59:32;2.90;;;1.55;;
8532;SDS011;4304;53.876;10.662;2023-06-22T11:01:57;2.72;;;1.35;;
8532;SDS011;4304;53.876;10.662;2023-06-22T11:04:23;2.35;;;1.45;;
8532;SDS011;4304;53.876;10.662;2023-06-22T11:06:49;3.05;;;1.67;;
8532;SDS011;4304;53.876;10.662;2023-06-22T11:09:15;3.10;;;1.45;;
8532;SDS011;4304;53.876;10.662;2023-06-22T11:11:45;2.97;;;1.50;;
8532;SDS011;4304;53.876;10.662;2023-06-22T11:14:11;3.13;;;1.40;;
8532;SDS011;4304;53.876;10.662;2023-06-22T11:16:36;2.83;;;1.45;;
8532;SDS011;4304;53.876;10.662;2023-06-22T11:19:01;3.35;;;1.75;;
8532;SDS011;4304;53.876;10.662;2023-06-22T11:21:28;5.05;;;1.10;;
8532;SDS011;4304;53.876;10.662;2023-06-22T11:23:53;3.13;;;1.73;;
8532;SDS011;4304;53.876;10.662;2023-06-22T11:26:19;3.10;;;1.40;;
8532;SDS011;4304;53.876;10.662;2023-06-22T11:28:46;3.40;;;2.10;;
8532;SDS011;4304;53.876;10.662;2023-06-22T11:31:11;3.05;;;1.55;;
8532;SDS011;4304;53.876;10.662;2023-06-22T11:33:37;3.30;;;1.58;;
8532;SDS011;4304;53.876;10.662;2023-06-22T11:36:02;4.78;;;2.10;;
8532;SDS011;4304;53.876;10.662;2023-06-22T11:38:28;3.80;;;1.98;;
8532;SDS011;4304;53.876;10.662;2023-06-22T11:40:53;3.03;;;1.63;;
8532;SDS011;4304;53.876;10.662;2023-06-22T11:43:19;3.13;;;1.40;;
8532;SDS011;4304;53.876;10.662;2023-06-22T11:45:44;2.78;;;1.48;;
8532;SDS011;4304;53.876;10.662;2023-06-22T11:48:10;5.70;;;1.60;;
8532;SDS011;4304;53.876;10.662;2023-06-22T11:50:35;2.42;;;1.42;;
8532;SDS011;4304;53.876;10.662;2023-06-22T11:53:01;2.55;;;1.38;;
8532;SDS011;4304;53.876;10.662;2023-06-22T11:55:27;3.13;;;1.67;;
8532;SDS011;4304;53.876;10.662;2023-06-22T11:57:54;3.40;;;1.80;;
8532;SDS011;4304;53.876;10.662;2023-06-22T12:00:21;3.45;;;1.67;;
8532;SDS011;4304;53.876;10.662;2023-06-22T12:02:48;2.65;;;1.35;;
8532;SDS011;4304;53.876;10.662;2023-06-22T12:05:14;3.95;;;1.92;;
8532;SDS011;4304;53.876;10.662;2023-06-22T12:07:39;3.77;;;2.03;;
8532;SDS011;4304;53.876;10.662;2023-06-22T12:10:05;3.50;;;1.85;;
8532;SDS011;4304;53.876;10.662;2023-06-22T12:12:30;3.22;;;1.63;;
8532;SDS011;4304;53.876;10.662;2023-06-22T12:14:56;4.25;;;2.08;;
8532;SDS011;4304;53.876;10.662;2023-06-22T12:17:21;3.60;;;1.65;;
8532;SDS011;4304;53.876;10.662;2023-06-22T12:19:46;2.05;;;1.05;;
8532;SDS011;4304;53.876;10.662;2023-06-22T12:22:12;2.83;;;1.52;;
8532;SDS011;4304;53.876;10.662;2023-06-22T12:24:37;3.50;;;1.55;;
8532;SDS011;4304;53.876;10.662;2023-06-22T12:27:02;2.53;;;1.50;;
8532;SDS011;4304;53.876;10.662;2023-06-22T12:29:28;4.53;;;1.80;;
8532;SDS011;4304;53.876;10.662;2023-06-22T12:31:54;3.13;;;1.55;;
8532;SDS011;4304;53.876;10.662;2023-06-22T12:34:19;3.70;;;1.45;;
8532;SDS011;4304;53.876;10.662;2023-06-22T12:36:44;4.53;;;1.73;;
8532;SDS011;4304;53.876;10.662;2023-06-22T12:39:12;2.30;;;1.30;;
8532;SDS011;4304;53.876;10.662;2023-06-22T12:41:37;3.97;;;2.03;;
8532;SDS011;4304;53.876;10.662;2023-06-22T12:44:03;2.85;;;1.40;;
8532;SDS011;4304;53.876;10.662;2023-06-22T12:46:28;3.55;;;1.75;;
8532;SDS011;4304;53.876;10.662;2023-06-22T12:48:55;2.70;;;1.27;;
8532;SDS011;4304;53.876;10.662;2023-06-22T12:51:21;1.80;;;0.93;;
8532;SDS011;4304;53.876;10.662;2023-06-22T12:53:47;2.20;;;1.45;;
8532;SDS011;4304;53.876;10.662;2023-06-22T12:56:12;8.32;;;2.00;;
8532;SDS011;4304;53.876;10.662;2023-06-22T12:58:38;3.55;;;1.77;;
8532;SDS011;4304;53.876;10.662;2023-06-22T13:01:03;3.93;;;1.83;;
8532;SDS011;4304;53.876;10.662;2023-06-22T13:03:28;5.37;;;2.10;;
8532;SDS011;4304;53.876;10.662;2023-06-22T13:05:54;2.73;;;1.50;;
8532;SDS011;4304;53.876;10.662;2023-06-22T13:08:19;3.67;;;1.15;;
8532;SDS011;4304;53.876;10.662;2023-06-22T13:10:44;2.42;;;1.35;;
8532;SDS011;4304;53.876;10.662;2023-06-22T13:13:10;3.30;;;1.97;;
8532;SDS011;4304;53.876;10.662;2023-06-22T13:15:35;3.50;;;1.88;;
8532;SDS011;4304;53.876;10.662;2023-06-22T13:18:00;2.92;;;1.48;;
8532;SDS011;4304;53.876;10.662;2023-06-22T13:20:26;2.83;;;1.30;;
8532;SDS011;4304;53.876;10.662;2023-06-22T13:22:53;5.65;;;2.08;;
8532;SDS011;4304;53.876;10.662;2023-06-22T13:25:19;1.80;;;1.10;;
8532;SDS011;4304;53.876;10.662;2023-06-22T13:27:47;2.40;;;1.30;;
8532;SDS011;4304;53.876;10.662;2023-06-22T13:30:12;2.80;;;1.70;;
8532;SDS011;4304;53.876;10.662;2023-06-22T13:32:37;2.92;;;1.75;;
8532;SDS011;4304;53.876;10.662;2023-06-22T13:35:04;1.70;;;1.15;;
8532;SDS011;4304;53.876;10.662;2023-06-22T13:37:29;2.25;;;1.33;;
8532;SDS011;4304;53.876;10.662;2023-06-22T13:39:55;3.65;;;1.30;;
8532;SDS011;4304;53.876;10.662;2023-06-22T13:42:21;3.50;;;1.10;;
8532;SDS011;4304;53.876;10.662;2023-06-22T13:44:46;1.55;;;0.88;;
8532;SDS011;4304;53.876;10.662;2023-06-22T13:47:11;3.10;;;1.25;;
8532;SDS011;4304;53.876;10.662;2023-06-22T13:49:37;1.95;;;1.13;;
8532;SDS011;4304;53.876;10.662;2023-06-22T13:52:02;2.88;;;1.23;;
8532;SDS011;4304;53.876;10.662;2023-06-22T13:54:29;2.53;;;1.20;;
8532;SDS011;4304;53.876;10.662;2023-06-22T13:56:54;2.30;;;1.05;;
8532;SDS011;4304;53.876;10.662;2023-06-22T13:59:19;2.60;;;1.35;;
8532;SDS011;4304;53.876;10.662;2023-06-22T14:01:46;1.75;;;1.10;;
8532;SDS011;4304;53.876;10.662;2023-06-22T14:04:11;2.78;;;1.42;;
8532;SDS011;4304;53.876;10.662;2023-06-22T14:06:37;3.13;;;1.55;;
8532;SDS011;4304;53.876;10.662;2023-06-22T14:09:03;4.95;;;1.83;;
8532;SDS011;4304;53.876;10.662;2023-06-22T14:11:28;2.57;;;1.20;;
8532;SDS011;4304;53.876;10.662;2023-06-22T14:13:54;1.90;;;1.02;;
8532;SDS011;4304;53.876;10.662;2023-06-22T14:16:19;3.22;;;1.38;;
8532;SDS011;4304;53.876;10.662;2023-06-22T14:18:44;4.75;;;1.33;;
8532;SDS011;4304;53.876;10.662;2023-06-22T14:21:10;2.05;;;1.25;;
8532;SDS011;4304;53.876;10.662;2023-06-22T14:23:36;2.28;;;1.20;;
8532;SDS011;4304;53.876;10.662;2023-06-22T14:26:02;6.07;;;1.10;;
8532;SDS011;4304;53.876;10.662;2023-06-22T14:28:28;2.83;;;1.40;;
8532;SDS011;4304;53.876;10.662;2023-06-22T14:30:53;2.27;;;1.30;;
8532;SDS011;4304;53.876;10.662;2023-06-22T14:33:18;4.15;;;1.27;;
8532;SDS011;4304;53.876;10.662;2023-06-22T14:35:44;2.20;;;1.30;;
8532;SDS011;4304;53.876;10.662;2023-06-22T14:38:09;2.83;;;1.50;;
8532;SDS011;4304;53.876;10.662;2023-06-22T14:40:34;2.33;;;1.37;;
8532;SDS011;4304;53.876;10.662;2023-06-22T14:43:00;2.80;;;1.75;;
8532;SDS011;4304;53.876;10.662;2023-06-22T14:45:25;3.10;;;1.27;;
8532;SDS011;4304;53.876;10.662;2023-06-22T14:47:50;5.93;;;2.10;;
8532;SDS011;4304;53.876;10.662;2023-06-22T14:50:16;5.18;;;1.80;;
8532;SDS011;4304;53.876;10.662;2023-06-22T14:52:41;2.88;;;1.52;;
8532;SDS011;4304;53.876;10.662;2023-06-22T14:55:07;2.20;;;1.20;;
8532;SDS011;4304;53.876;10.662;2023-06-22T14:57:32;2.30;;;0.90;;
8532;SDS011;4304;53.876;10.662;2023-06-22T14:59:58;3.97;;;1.55;;
8532;SDS011;4304;53.876;10.662;2023-06-22T15:02:23;2.92;;;1.20;;
8532;SDS011;4304;53.876;10.662;2023-06-22T15:04:48;2.00;;;1.17;;
8532;SDS011;4304;53.876;10.662;2023-06-22T15:07:14;2.47;;;0.98;;
8532;SDS011;4304;53.876;10.662;2023-06-22T15:09:40;4.25;;;1.40;;
8532;SDS011;4304;53.876;10.662;2023-06-22T15:12:07;4.68;;;1.75;;
8532;SDS011;4304;53.876;10.662;2023-06-22T15:14:36;2.60;;;1.25;;
8532;SDS011;4304;53.876;10.662;2023-06-22T15:17:06;2.03;;;1.00;;
8532;SDS011;4304;53.876;10.662;2023-06-22T15:19:34;2.45;;;1.23;;
8532;SDS011;4304;53.876;10.662;2023-06-22T15:22:00;2.88;;;1.42;;
8532;SDS011;4304;53.876;10.662;2023-06-22T15:24:26;2.15;;;1.00;;
8532;SDS011;4304;53.876;10.662;2023-06-22T15:26:51;1.80;;;0.85;;
8532;SDS011;4304;53.876;10.662;2023-06-22T15:29:17;2.15;;;0.93;;
8532;SDS011;4304;53.876;10.662;2023-06-22T15:31:42;2.60;;;1.07;;
8532;SDS011;4304;53.876;10.662;2023-06-22T15:34:07;2.25;;;0.85;;
8532;SDS011;4304;53.876;10.662;2023-06-22T15:36:34;2.10;;;1.00;;
8532;SDS011;4304;53.876;10.662;2023-06-22T15:38:59;1.83;;;0.88;;
8532;SDS011;4304;53.876;10.662;2023-06-22T15:41:25;2.13;;;1.40;;
8532;SDS011;4304;53.876;10.662;2023-06-22T15:43:50;4.10;;;1.15;;
8532;SDS011;4304;53.876;10.662;2023-06-22T15:46:15;1.98;;;1.23;;
8532;SDS011;4304;53.876;10.662;2023-06-22T15:48:42;3.30;;;1.30;;
8532;SDS011;4304;53.876;10.662;2023-06-22T15:51:08;1.70;;;0.82;;
8532;SDS011;4304;53.876;10.662;2023-06-22T15:53:33;4.00;;;1.55;;
8532;SDS011;4304;53.876;10.662;2023-06-22T15:55:58;4.55;;;1.48;;
8532;SDS011;4304;53.876;10.662;2023-06-22T15:58:24;4.73;;;0.87;;
8532;SDS011;4304;53.876;10.662;2023-06-22T16:00:49;1.83;;;0.90;;
8532;SDS011;4304;53.876;10.662;2023-06-22T16:03:14;1.85;;;0.90;;
8532;SDS011;4304;53.876;10.662;2023-06-22T16:05:41;1.80;;;0.70;;
8532;SDS011;4304;53.876;10.662;2023-06-22T16:08:10;1.58;;;0.75;;
8532;SDS011;4304;53.876;10.662;2023-06-22T16:10:39;5.13;;;1.55;;
8532;SDS011;4304;53.876;10.662;2023-06-22T16:13:05;3.20;;;0.85;;
8532;SDS011;4304;53.876;10.662;2023-06-22T16:15:30;2.78;;;1.17;;
8532;SDS011;4304;53.876;10.662;2023-06-22T16:17:55;2.05;;;0.90;;
8532;SDS011;4304;53.876;10.662;2023-06-22T16:20:20;1.67;;;0.82;;
8532;SDS011;4304;53.876;10.662;2023-06-22T16:22:46;2.90;;;1.35;;
8532;SDS011;4304;53.876;10.662;2023-06-22T16:25:12;1.85;;;1.42;;
8532;SDS011;4304;53.876;10.662;2023-06-22T16:27:38;2.90;;;1.25;;
8532;SDS011;4304;53.876;10.662;2023-06-22T16:30:04;3.08;;;1.33;;
8532;SDS011;4304;53.876;10.662;2023-06-22T16:32:33;2.00;;;1.02;;
8532;SDS011;4304;53.876;10.662;2023-06-22T16:34:58;2.20;;;0.75;;
8532;SDS011;4304;53.876;10.662;2023-06-22T16:37:24;6.65;;;1.75;;